Time;durP1;ratioP1;P1;durP2;ratioP2;P2;SDS_P1;SDS_P2;PMS_P1;PMS_P2;Temp;Humidity;BMP_temperature;BMP_pressure;BME280_temperature;BME280_humidity;BME280_pressure;Samples;Min_cycle;Max_cycle;Signal;HPM_P1;HPM_P2
2023/02/07 02:16:46;;;;;;;11.70;5.60;;;;;;;-5.13;100.00;100340.20;105164;1302;1003085;-74
2023/02/07 02:19:40;;;;;;;12.60;5.80;;;;;;;-5.02;100.00;100294.75;106096;1286;1003551;-74
2023/02/07 02:22:34;;;;;;;;;;;;;;;-5.02;100.00;100313.57;107106;1287;24260;-75
2023/02/07 02:25:14;;;;;;;9.70;4.70;;;;;;;-5.05;100.00;100331.80;105912;1294;1003030;-74
2023/02/07 02:28:05;;;;;;;11.30;5.80;;;;;;;-5.05;100.00;100353.78;106993;1286;26673;-75
2023/02/07 02:31:13;;;;;;;15.10;6.00;;;;;;;-5.06;100.00;100372.10;106303;1286;1003593;-72
2023/02/07 02:34:08;;;;;;;11.40;5.40;;;;;;;-5.08;100.00;100387.48;106139;1287;1003447;-75
2023/02/07 02:36:44;;;;;;;11.80;5.00;;;;;;;-5.09;100.00;100403.15;107128;1274;1003377;-73
2023/02/07 02:39:17;;;;;;;14.50;5.70;;;;;;;-5.11;100.00;100414.52;107104;1274;1015106;-74
2023/02/07 02:42:00;;;;;;;10.60;5.30;;;;;;;-5.13;100.00;100434.45;107861;1275;24119;-74
2023/02/07 02:44:34;;;;;;;13.80;5.50;;;;;;;-5.17;100.00;100447.27;107214;1274;1002932;-73
2023/02/07 02:47:03;;;;;;;11.60;4.70;;;;;;;-5.20;100.00;100467.60;107144;1274;1002974;-73
2023/02/07 02:49:32;;;;;;;11.30;4.90;;;;;;;-5.20;100.00;100485.85;107931;1274;22568;-72
2023/02/07 02:52:01;;;;;;;9.20;4.50;;;;;;;-5.19;100.00;100500.59;107809;1275;22463;-75
2023/02/07 02:54:36;;;;;;;11.80;4.90;;;;;;;-5.19;100.00;100510.96;107881;1275;23875;-74
2023/02/07 02:57:36;;;;;;;9.60;4.60;;;;;;;-5.22;100.00;100526.54;107230;1274;1003315;-73
2023/02/07 03:00:13;;;;;;;8.10;4.40;;;;;;;-5.23;100.00;100542.77;107751;1274;22491;-74
2023/02/07 03:02:55;;;;;;;7.60;4.10;;;;;;;-5.27;100.00;100561.20;107617;1275;25613;-74
2023/02/07 03:05:39;;;;;;;10.60;5.10;;;;;;;-5.29;100.00;100574.98;107098;1274;1003006;-75
2023/02/07 03:08:24;;;;;;;10.40;4.50;;;;;;;-5.28;100.00;100585.48;106927;1274;1003076;-74
2023/02/07 03:11:17;;;;;;;12.80;4.60;;;;;;;-5.30;100.00;100597.35;106811;1275;1003208;-72
2023/02/07 03:14:03;;;;;;;11.30;4.90;;;;;;;-5.34;100.00;100616.09;107708;1274;23878;-75
2023/02/07 03:16:57;;;;;;;8.10;3.70;;;;;;;-5.35;100.00;100621.95;107041;1274;1003745;-73
2023/02/07 03:19:37;;;;;;;10.20;4.50;;;;;;;-5.37;100.00;100634.32;107909;1275;22553;-73
2023/02/07 03:22:09;;;;;;;13.20;4.40;;;;;;;-5.40;100.00;100645.14;107016;1275;1002849;-72
2023/02/07 03:24:47;;;;;;;13.30;5.40;;;;;;;-5.42;100.00;100660.88;107009;1275;1003419;-72
2023/02/07 03:27:16;;;;;;;14.20;6.50;;;;;;;-5.44;100.00;100664.63;107726;1275;23864;-73
2023/02/07 03:29:47;;;;;;;15.40;5.80;;;;;;;-5.47;100.00;100673.49;107102;1275;1003118;-75
2023/02/07 03:32:16;;;;;;;13.00;5.80;;;;;;;-5.47;100.00;100680.90;107179;1275;1003181;-73
2023/02/07 03:35:21;;;;;;;9.20;4.10;;;;;;;-5.49;100.00;100691.33;107712;1275;25455;-75
2023/02/07 03:37:58;;;;;;;10.30;4.90;;;;;;;-5.55;100.00;100706.83;107675;1255;22474;-74
2023/02/07 03:40:35;;;;;;;8.60;4.70;;;;;;;-5.64;100.00;100725.04;107827;1275;23236;-75
2023/02/07 03:43:10;;;;;;;11.50;5.30;;;;;;;-5.76;100.00;100747.37;107732;1275;24164;-73
2023/02/07 03:45:39;;;;;;;13.90;5.40;;;;;;;-5.85;100.00;100763.14;107068;1275;1003075;-74
2023/02/07 03:48:08;;;;;;;11.60;5.10;;;;;;;-5.94;100.00;100776.58;107116;1275;1003013;-75
2023/02/07 03:50:37;;;;;;;12.20;4.80;;;;;;;-5.98;100.00;100788.70;106987;1275;1002336;-74
2023/02/07 03:53:06;;;;;;;13.00;5.80;;;;;;;-6.00;100.00;100808.23;107768;1274;25440;-73
2023/02/07 03:55:36;;;;;;;12.50;5.30;;;;;;;-6.05;100.00;100821.54;107081;1275;1003222;-73
2023/02/07 03:58:07;;;;;;;10.70;5.00;;;;;;;-6.09;100.00;100832.36;107791;1275;26766;-75
2023/02/07 04:00:36;;;;;;;13.70;5.50;;;;;;;-6.15;100.00;100849.41;107004;1275;1002911;-73
2023/02/07 04:03:04;;;;;;;13.30;5.80;;;;;;;-6.22;100.00;100866.79;107798;1275;25429;-75
2023/02/07 04:05:34;;;;;;;18.80;6.60;;;;;;;-6.28;100.00;100877.85;107016;1275;1002691;-75
2023/02/07 04:08:03;;;;;;;16.50;6.60;;;;;;;-6.33;100.00;100893.98;106952;1275;1003290;-76
2023/02/07 04:10:33;;;;;;;17.00;6.00;;;;;;;-6.39;100.00;100904.48;107584;1275;25313;-74
2023/02/07 04:13:05;;;;;;;16.30;6.00;;;;;;;-6.45;100.00;100918.52;107871;1275;25961;-74
2023/02/07 04:15:34;;;;;;;15.60;4.50;;;;;;;-6.51;100.00;100924.44;107739;1275;25573;-77
2023/02/07 04:18:04;;;;;;;21.20;6.40;;;;;;;-6.55;100.00;100935.96;106876;1275;1002885;-75
2023/02/07 04:20:33;;;;;;;14.80;5.90;;;;;;;-6.60;100.00;100942.58;106920;1275;1003749;-75
2023/02/07 04:23:02;;;;;;;15.40;6.20;;;;;;;-6.62;100.00;100949.67;107710;1275;23765;-74
2023/02/07 04:25:31;;;;;;;17.30;6.20;;;;;;;-6.65;100.00;100956.75;107394;1275;25445;-72
2023/02/07 04:28:00;;;;;;;16.70;6.40;;;;;;;-6.70;100.00;100961.61;107368;1275;24191;-74
2023/02/07 04:30:30;;;;;;;16.10;6.60;;;;;;;-6.74;100.00;100966.42;107381;1275;26854;-73
2023/02/07 04:32:59;;;;;;;15.20;5.80;;;;;;;-6.78;100.00;100971.61;106705;1275;1003100;-74
2023/02/07 04:35:28;;;;;;;15.40;6.20;;;;;;;-6.83;100.00;100978.23;106561;1275;1003214;-72
2023/02/07 04:37:56;;;;;;;16.00;6.00;;;;;;;-6.87;100.00;100981.84;106711;1275;1002583;-74
2023/02/07 04:40:25;;;;;;;18.80;7.10;;;;;;;-6.91;100.00;100980.88;107301;1275;25449;-73
2023/02/07 04:42:54;;;;;;;15.80;6.20;;;;;;;-6.96;100.00;100985.73;106691;1275;1003042;-75
2023/02/07 04:45:23;;;;;;;17.60;6.70;;;;;;;-7.01;100.00;100990.92;106627;1275;1002936;-74
2023/02/07 04:47:51;;;;;;;15.70;6.60;;;;;;;-7.06;100.00;101000.33;107384;1275;25566;-76
2023/02/07 04:50:20;;;;;;;17.00;6.50;;;;;;;-7.10;100.00;101009.73;107350;1275;26894;-75
2023/02/07 04:52:49;;;;;;;16.80;7.10;;;;;;;-7.13;100.00;101015.04;106655;1275;1003554;-74
2023/02/07 04:55:18;;;;;;;12.60;6.50;;;;;;;-7.12;100.00;101017.46;106558;1275;1003493;-74
2023/02/07 04:57:46;;;;;;;13.70;6.20;;;;;;;-7.12;100.00;101009.77;107407;1275;22736;-75
2023/02/07 05:00:16;;;;;;;17.80;6.80;;;;;;;-7.12;100.00;101012.92;106594;1275;1004054;-73
2023/02/07 05:02:45;;;;;;;16.10;6.30;;;;;;;-7.15;100.00;101018.25;106606;1275;1003113;-73
2023/02/07 05:05:14;;;;;;;14.40;6.00;;;;;;;-7.21;100.00;101019.80;106348;1275;1002849;-74
2023/02/07 05:07:42;;;;;;;12.30;5.90;;;;;;;-7.28;100.00;101022.20;106307;1275;1002823;-73
2023/02/07 05:10:11;;;;;;;15.10;5.80;;;;;;;-7.30;100.00;101021.55;106364;1275;1003369;-75
2023/02/07 05:12:42;;;;;;;16.40;6.70;;;;;;;-7.37;100.00;101028.88;106998;1275;22567;-74
2023/02/07 05:15:11;;;;;;;18.20;6.30;;;;;;;-7.43;100.00;101026.04;106340;1275;1003257;-73
2023/02/07 05:17:40;;;;;;;22.60;7.80;;;;;;;-7.52;100.00;101028.52;106349;1275;1016135;-74
2023/02/07 05:20:09;;;;;;;35.70;11.60;;;;;;;-7.59;100.00;101031.98;107109;1275;22601;-73
2023/02/07 05:22:39;;;;;;;102.20;33.00;;;;;;;-7.61;100.00;101027.48;107085;1275;27003;-75
2023/02/07 05:25:08;;;;;;;58.90;20.90;;;;;;;-7.64;100.00;101022.80;106216;1275;1002505;-75
2023/02/07 05:27:37;;;;;;;153.70;45.20;;;;;;;-7.68;100.00;101020.43;106988;1275;25661;-76
2023/02/07 05:30:06;;;;;;;52.90;19.30;;;;;;;-7.71;100.00;101017.68;106383;1275;1003626;-74
2023/02/07 05:35:24;;;;;;;124.40;47.00;;;;;;;-7.73;100.00;101006.88;106396;1275;1002964;-74
2023/02/07 05:37:52;;;;;;;63.00;28.50;;;;;;;-7.72;100.00;100997.04;106405;1275;1003783;-73
2023/02/07 05:40:21;;;;;;;29.80;14.20;;;;;;;-7.73;100.00;100993.91;106337;1275;1002563;-75
2023/02/07 05:42:53;;;;;;;32.90;13.60;;;;;;;-7.75;100.00;100990.09;106951;1275;25473;-73
2023/02/07 05:45:22;;;;;;;22.60;10.30;;;;;;;-7.75;100.00;100993.96;106281;1275;1002907;-73
2023/02/07 05:47:52;;;;;;;22.00;9.00;;;;;;;-7.73;100.00;100984.45;106913;1275;26787;-73
2023/02/07 05:50:21;;;;;;;25.30;8.80;;;;;;;-7.69;100.00;100973.01;106270;1275;1003445;-75
2023/02/07 05:52:49;;;;;;;16.30;6.70;;;;;;;-7.65;100.00;100965.04;106226;1275;1002368;-74
2023/02/07 05:55:18;;;;;;;16.60;6.60;;;;;;;-7.58;100.00;100962.09;107096;1275;26894;-73
2023/02/07 05:57:47;;;;;;;19.40;8.00;;;;;;;-7.50;100.00;100960.33;106354;1275;1003421;-72
2023/02/07 06:00:17;;;;;;;19.50;8.10;;;;;;;-7.44;100.00;100949.52;107031;1275;22571;-75
2023/02/07 06:02:46;;;;;;;18.70;8.30;;;;;;;-7.38;100.00;100950.08;107339;1275;22576;-74
2023/02/07 06:05:16;;;;;;;28.10;11.70;;;;;;;-7.31;100.00;100944.84;107261;1275;22699;-75
2023/02/07 06:07:45;;;;;;;23.00;10.20;;;;;;;-7.22;100.00;100939.39;106526;1275;1003564;-74
2023/02/07 06:10:14;;;;;;;17.80;8.20;;;;;;;-7.17;100.00;100938.39;106483;1275;1003255;-74
2023/02/07 06:12:44;;;;;;;34.50;16.40;;;;;;;-7.15;100.00;100945.88;107197;1275;23931;-74
2023/02/07 06:15:12;;;;;;;33.00;13.80;;;;;;;-7.14;100.00;100951.46;106658;1275;1002449;-76
2023/02/07 06:17:42;;;;;;;26.80;11.60;;;;;;;-7.13;100.00;100952.85;106542;1275;1003551;-74
2023/02/07 06:20:11;;;;;;;21.60;9.60;;;;;;;-7.14;100.00;100954.25;107144;1275;27133;-74
2023/02/07 06:22:40;;;;;;;24.20;9.90;;;;;;;-7.12;100.00;100950.88;107136;1275;22722;-74
2023/02/07 06:25:10;;;;;;;19.80;8.20;;;;;;;-7.07;100.00;100951.81;106297;1273;1003213;-73
2023/02/07 06:27:39;;;;;;;21.40;7.10;;;;;;;-7.07;100.00;100960.58;107154;1274;24934;-75
2023/02/07 06:30:10;;;;;;;42.60;17.10;;;;;;;-7.10;100.00;100965.20;107522;1270;25423;-75
2023/02/07 06:32:40;;;;;;;35.40;13.00;;;;;;;-7.10;100.00;100974.48;107907;1269;26264;-77
2023/02/07 06:35:09;;;;;;;23.40;10.00;;;;;;;-7.10;100.00;100976.60;107034;1270;1002889;-78
2023/02/07 06:37:37;;;;;;;21.80;8.90;;;;;;;-7.11;100.00;100985.90;108002;1275;22788;-79
2023/02/07 06:40:07;;;;;;;24.50;8.80;;;;;;;-7.10;100.00;100989.20;107110;1273;1003094;-80
2023/02/07 06:42:38;;;;;;;31.10;13.80;;;;;;;-7.09;100.00;100999.01;107862;1272;25300;-78
2023/02/07 06:45:07;;;;;;;20.90;10.70;;;;;;;-7.09;100.00;101001.63;107005;1270;1003083;-74
2023/02/07 06:47:35;;;;;;;28.30;13.20;;;;;;;-7.03;100.00;101009.21;107076;1270;1003420;-77
2023/02/07 06:50:04;;;;;;;27.50;13.60;;;;;;;-6.95;100.00;101009.36;107958;1270;25497;-78
2023/02/07 06:52:36;;;;;;;27.00;13.00;;;;;;;-6.88;100.00;101008.17;107098;1275;25433;-69
2023/02/07 06:55:05;;;;;;;28.70;13.20;;;;;;;-6.77;100.00;101006.33;106263;1275;1002966;-69
2023/02/07 06:57:34;;;;;;;29.10;13.20;;;;;;;-6.66;100.00;101005.52;107048;1275;26723;-68
2023/02/07 07:00:04;;;;;;;27.10;12.30;;;;;;;-6.51;100.00;101005.84;107480;1275;1003627;-69
2023/02/07 07:02:33;;;;;;;26.10;11.50;;;;;;;-6.39;100.00;100998.17;107170;1269;1002746;-72
2023/02/07 07:05:02;;;;;;;24.60;9.00;;;;;;;-6.25;100.00;101001.50;106999;1275;24551;-71
2023/02/07 07:07:31;;;;;;;17.80;6.40;;;;;;;-6.16;100.00;101002.14;106399;1269;1002415;-69
2023/02/07 07:10:01;;;;;;;21.10;7.50;;;;;;;-6.18;100.00;101015.35;106869;1273;24198;-68
2023/02/07 07:12:31;;;;;;;16.60;6.20;;;;;;;-6.27;100.00;101047.52;107233;1273;25543;-69
2023/02/07 07:15:00;;;;;;;16.50;6.20;;;;;;;-6.33;100.00;101076.79;106941;1275;25374;-69
2023/02/07 07:17:29;;;;;;;16.60;6.90;;;;;;;-6.34;100.00;101097.54;106178;1272;1002893;-68
2023/02/07 07:19:58;;;;;;;22.30;6.50;;;;;;;-6.32;100.00;101116.44;106234;1270;1003179;-68
2023/02/07 07:22:27;;;;;;;16.40;6.40;;;;;;;-6.24;100.00;101123.96;107023;1269;25306;-70
2023/02/07 07:24:56;;;;;;;21.80;8.20;;;;;;;-6.10;100.00;101125.55;106314;1270;1002928;-68
2023/02/07 07:27:25;;;;;;;24.00;7.40;;;;;;;-5.96;100.00;101132.92;106319;1275;1003441;-68
2023/02/07 07:29:53;;;;;;;14.70;6.30;;;;;;;-5.80;100.00;101136.16;107221;1276;22749;-68
2023/02/07 07:32:22;;;;;;;28.90;11.30;;;;;;;-5.71;100.00;101148.95;106236;1276;1003043;-67
2023/02/07 07:35:02;;;;;;;17.70;7.70;;;;;;;-5.59;100.00;101158.64;107160;1275;25636;-68
2023/02/07 07:37:31;;;;;;;16.70;6.70;;;;;;;-5.48;100.00;101166.27;107275;1275;23276;-68
2023/02/07 07:40:00;;;;;;;15.80;6.30;;;;;;;-5.46;100.00;101181.13;106635;1275;1002600;-69
2023/02/07 07:42:29;;;;;;;22.50;7.90;;;;;;;-5.52;100.00;101201.13;106457;1275;1003234;-73
2023/02/07 07:45:09;;;;;;;17.30;7.50;;;;;;;-5.46;100.00;101218.55;106386;1275;1002864;-72
2023/02/07 07:47:38;;;;;;;18.40;7.80;;;;;;;-5.30;100.00;101226.06;106338;1253;1002967;-72
2023/02/07 07:50:08;;;;;;;21.40;8.50;;;;;;;-5.16;100.00;101227.41;106551;1275;1014630;-72
2023/02/07 07:52:37;;;;;;;18.20;7.80;;;;;;;-5.08;100.00;101239.35;106346;1270;1003059;-71
2023/02/07 07:55:06;;;;;;;18.50;7.10;;;;;;;-4.98;100.00;101248.39;106650;1269;1002183;-73
2023/02/07 07:57:35;;;;;;;14.00;6.30;;;;;;;-4.93;100.00;101263.22;106071;1275;1003872;-71
2023/02/07 08:00:05;;;;;;;17.50;7.30;;;;;;;-4.84;100.00;101271.56;107100;1275;22640;-72
2023/02/07 08:02:41;;;;;;;19.60;8.00;;;;;;;-4.68;100.00;101279.39;107212;1269;25450;-71
2023/02/07 08:05:10;;;;;;;20.50;7.90;;;;;;;-4.50;100.00;101281.69;106553;1275;1002896;-70
2023/02/07 08:07:41;;;;;;;16.20;6.70;;;;;;;-4.30;100.00;101285.70;106505;1270;1002751;-71
2023/02/07 08:10:10;;;;;;;20.80;8.60;;;;;;;-4.16;100.00;101290.73;106454;1272;1003041;-68
2023/02/07 08:12:38;;;;;;;21.10;8.90;;;;;;;-4.01;100.00;101294.48;107061;1269;27441;-70
2023/02/07 08:15:09;;;;;;;18.30;6.70;;;;;;;-3.87;100.00;101295.84;107083;1270;25383;-70
2023/02/07 08:17:38;;;;;;;16.30;6.10;;;;;;;-3.84;100.00;101305.94;106984;1269;26392;-71
2023/02/07 08:20:11;;;;;;;16.50;6.10;;;;;;;-3.88;100.00;101312.25;106265;1273;1002857;-71
2023/02/07 08:22:40;;;;;;;29.00;11.80;;;;;;;-3.94;100.00;101323.16;106334;1268;1003490;-71
2023/02/07 08:25:09;;;;;;;37.40;14.10;;;;;;;-3.92;100.00;101328.56;106792;1270;22461;-71
2023/02/07 08:27:38;;;;;;;26.10;10.80;;;;;;;-3.82;100.00;101321.05;107021;1275;26627;-72
2023/02/07 08:30:08;;;;;;;32.50;13.20;;;;;;;-3.71;100.00;101321.74;106337;1270;1003085;-72
2023/02/07 08:32:38;;;;;;;25.60;11.60;;;;;;;-3.58;100.00;101323.30;106206;1275;1003327;-71
2023/02/07 08:35:08;;;;;;;19.50;9.00;;;;;;;-3.42;100.00;101319.44;106945;1275;23893;-68
2023/02/07 08:37:39;;;;;;;23.70;10.50;;;;;;;-3.32;100.00;101315.92;107106;1269;25739;-66
2023/02/07 08:40:08;;;;;;;18.70;8.40;;;;;;;-3.28;100.00;101331.11;106286;1270;1003081;-69
2023/02/07 08:42:37;;;;;;;19.10;7.90;;;;;;;-3.27;100.00;101337.08;106266;1275;1003070;-67
2023/02/07 08:45:06;;;;;;;18.30;8.10;;;;;;;-3.20;100.00;101340.41;107342;1275;25478;-72
2023/02/07 08:47:37;;;;;;;21.30;8.90;;;;;;;-3.18;100.00;101342.45;106503;1275;1002952;-74
2023/02/07 08:50:07;;;;;;;73.90;23.40;;;;;;;-3.09;100.00;101345.46;106918;1272;25265;-69
2023/02/07 08:52:37;;;;;;;45.80;16.10;;;;;;;-2.91;100.00;101342.08;106410;1275;1003070;-71
2023/02/07 08:55:06;;;;;;;40.80;17.70;;;;;;;-2.86;100.00;101345.94;106471;1276;1002770;-71
2023/02/07 08:57:36;;;;;;;58.00;28.00;;;;;;;-2.78;100.00;101350.08;106473;1272;1002855;-71
2023/02/07 09:00:05;;;;;;;88.70;25.60;;;;;;;-2.74;100.00;101352.22;106039;1274;1002949;-72
2023/02/07 09:02:36;;;;;;;52.90;17.50;;;;;;;-2.78;100.00;101361.71;107022;1270;25426;-70
2023/02/07 09:05:07;;;;;;;27.20;10.00;;;;;;;-2.74;100.00;101355.05;106365;1269;1003004;-71
2023/02/07 09:07:37;;;;;;;30.00;9.50;;;;;;;-2.67;100.00;101349.70;106540;1269;1003508;-72
2023/02/07 09:10:09;;;;;;;26.40;8.90;;;;;;;-2.59;100.00;101350.31;107343;1272;25243;-72
2023/02/07 09:12:38;;;;;;;17.20;7.20;;;;;;;-2.51;100.00;101351.93;106254;1276;1003357;-71
2023/02/07 09:15:07;;;;;;;18.00;6.80;;;;;;;-2.53;100.00;101358.73;107309;1272;25532;-71
2023/02/07 09:17:37;;;;;;;17.40;6.50;;;;;;;-2.69;100.00;101371.31;106335;1269;1003034;-71
2023/02/07 09:20:09;;;;;;;27.00;15.10;;;;;;;-2.85;100.00;101388.27;106962;1276;22535;-72
2023/02/07 09:25:46;;;;;;;33.30;12.20;;;;;;;-2.89;100.00;101368.45;105990;1281;1003417;-72
2023/02/07 09:28:15;;;;;;;27.00;11.30;;;;;;;-2.75;100.00;101363.39;107088;1275;25239;-74
2023/02/07 09:30:45;;;;;;;29.60;12.00;;;;;;;-2.52;100.00;101339.98;106464;1270;1003237;-70
2023/02/07 09:33:14;;;;;;;34.70;13.30;;;;;;;-2.40;100.00;101322.05;106566;1275;1002991;-68
2023/02/07 09:35:45;;;;;;;26.90;11.00;;;;;;;-2.44;100.00;101317.96;106359;1275;1003044;-73
2023/02/07 09:38:19;;;;;;;26.50;8.80;;;;;;;-2.43;100.00;101320.22;107063;1275;26509;-74
2023/02/07 09:40:49;;;;;;;19.00;7.70;;;;;;;-2.39;100.00;101316.52;106517;1272;1003756;-74
2023/02/07 09:43:27;;;;;;;17.30;6.70;;;;;;;-2.35;100.00;101310.02;106678;1275;1003935;-73
2023/02/07 09:46:29;;;;;;;16.60;7.00;;;;;;;-2.37;100.00;101298.12;106919;1272;22601;-70
2023/02/07 09:49:13;;;;;;;17.60;5.90;;;;;;;-2.51;100.00;101297.58;106332;1273;1002676;-74
2023/02/07 09:51:42;;;;;;;14.30;6.30;;;;;;;-2.72;100.00;101308.02;106373;1268;1003063;-70
2023/02/07 09:54:23;;;;;;;17.20;7.90;;;;;;;-2.82;100.00;101312.11;107098;1269;26032;-67
2023/02/07 09:56:51;;;;;;;15.10;6.20;;;;;;;-2.76;100.00;101303.24;106483;1271;1003143;-68
2023/02/07 09:59:20;;;;;;;21.90;8.10;;;;;;;-2.74;100.00;101298.58;106185;1268;1003825;-68
2023/02/07 10:01:52;;;;;;;14.70;6.50;;;;;;;-2.65;100.00;101291.36;107055;1275;26512;-73
2023/02/07 10:04:29;;;;;;;;;;;;;;;-2.49;100.00;101280.52;107232;1272;25281;-72
2023/02/07 10:06:58;;;;;;;14.00;5.30;;;;;;;-2.27;100.00;101262.05;107340;1269;22541;-71
2023/02/07 10:09:32;;;;;;;11.40;5.80;;;;;;;-2.24;100.00;101261.24;108122;1269;24257;-71
2023/02/07 10:12:32;;;;;;;16.40;6.60;;;;;;;-2.25;100.00;101251.38;106504;1272;1003775;-72
2023/02/07 10:15:18;;;;;;;15.80;5.80;;;;;;;-2.35;100.00;101256.70;106306;1277;1003377;-73
2023/02/07 10:18:07;;;;;;;19.60;6.10;;;;;;;-2.48;100.00;101274.84;106759;1277;1003359;-71
2023/02/07 10:20:59;;;;;;;17.00;6.90;;;;;;;-2.47;100.00;101268.79;106623;1273;1002908;-71
2023/02/07 10:23:59;;;;;;;14.70;5.90;;;;;;;-2.28;100.00;101252.89;106670;1273;1002911;-74
2023/02/07 10:26:50;;;;;;;13.20;5.90;;;;;;;-2.13;100.00;101234.12;107143;1274;1003416;-71
2023/02/07 10:29:34;;;;;;;15.60;6.50;;;;;;;-2.10;100.00;101234.36;107411;1277;25437;-72
2023/02/07 10:32:13;;;;;;;14.10;6.10;;;;;;;-2.01;100.00;101230.82;106543;1270;1002779;-71
2023/02/07 10:34:46;;;;;;;19.30;8.80;;;;;;;-1.93;100.00;101224.50;107564;1277;24222;-73
2023/02/07 10:37:22;;;;;;;17.40;6.30;;;;;;;-1.87;100.00;101217.36;107003;1277;1002935;-71
2023/02/07 10:40:34;;;;;;;19.90;7.80;;;;;;;-1.91;100.00;101222.83;107066;1277;1002623;-73
2023/02/07 10:43:05;;;;;;;15.80;6.60;;;;;;;-1.87;100.00;101223.35;107697;1277;23893;-71
2023/02/07 10:45:34;;;;;;;18.40;7.40;;;;;;;-1.76;100.00;101214.61;106825;1277;1003355;-72
2023/02/07 10:48:14;;;;;;;21.10;7.10;;;;;;;-1.66;100.00;101215.27;106875;1277;1002844;-71
2023/02/07 10:50:43;;;;;;;26.50;10.10;;;;;;;-1.74;100.00;101222.14;107390;1277;24517;-72
2023/02/07 10:53:13;;;;;;;16.70;6.60;;;;;;;-1.81;100.00;101232.30;106657;1270;1003445;-73
2023/02/07 10:55:45;;;;;;;19.10;7.70;;;;;;;-1.91;100.00;101236.09;106564;1270;1003513;-72
2023/02/07 10:58:21;;;;;;;18.10;7.40;;;;;;;-2.08;100.00;101237.45;106585;1272;1003376;-73
2023/02/07 11:00:52;;;;;;;22.80;10.00;;;;;;;-2.23;100.00;101241.23;107451;1273;22548;-72
2023/02/07 11:03:22;;;;;;;23.00;9.00;;;;;;;-2.33;100.00;101252.58;107456;1277;25449;-73
2023/02/07 11:05:54;;;;;;;;;;;;;;;-2.36;100.00;101250.02;107211;1278;25440;-74
2023/02/07 11:08:26;;;;;;;18.10;7.00;;;;;;;-2.37;100.00;101250.25;106736;1278;1003052;-73
2023/02/07 11:10:59;;;;;;;19.70;7.80;;;;;;;-2.39;100.00;101244.31;106533;1278;1003233;-71
2023/02/07 11:13:29;;;;;;;21.50;7.40;;;;;;;-2.38;100.00;101239.67;107048;1278;25971;-69
2023/02/07 11:16:02;;;;;;;18.20;6.70;;;;;;;-2.41;100.00;101243.87;108423;1272;23906;-69
2023/02/07 11:19:03;;;;;;;16.30;6.90;;;;;;;-2.44;100.00;101243.45;109110;1272;24222;-69
2023/02/07 11:21:32;;;;;;;16.30;6.90;;;;;;;-2.53;100.00;101246.23;108298;1275;1002963;-69
2023/02/07 11:24:07;;;;;;;20.00;7.10;;;;;;;-2.49;100.00;101245.21;108934;1270;24413;-69
2023/02/07 11:26:40;;;;;;;22.40;8.70;;;;;;;-2.49;100.00;101242.20;106602;1270;1003921;-70
2023/02/07 11:29:16;;;;;;;;;;;;;;;-2.47;100.00;101244.27;106165;1270;1003262;-69
2023/02/07 11:31:45;;;;;;;25.70;11.30;;;;;;;-2.45;100.00;101242.80;106249;1275;1003645;-66
2023/02/07 11:34:36;;;;;;;32.60;16.20;;;;;;;-2.47;100.00;101244.45;106169;1275;1003247;-67
2023/02/07 11:37:25;;;;;;;27.20;13.20;;;;;;;-2.51;100.00;101239.80;106786;1269;1004843;-73
2023/02/07 11:40:14;;;;;;;31.70;13.30;;;;;;;-2.52;100.00;101238.77;106632;1269;1002984;-68
2023/02/07 11:43:11;;;;;;;23.10;9.20;;;;;;;-2.51;100.00;101233.98;107136;1269;22528;-68
2023/02/07 11:45:42;;;;;;;24.10;8.10;;;;;;;-2.49;100.00;101231.47;106392;1269;1015638;-69
2023/02/07 11:48:18;;;;;;;20.90;9.00;;;;;;;-2.52;100.00;101234.03;107072;1269;25457;-69
2023/02/07 11:50:50;;;;;;;21.30;10.50;;;;;;;-2.60;100.00;101232.04;107153;1269;25297;-67
2023/02/07 11:53:25;;;;;;;20.60;8.80;;;;;;;-2.67;100.00;101230.34;106323;1275;1016391;-70
2023/02/07 11:55:54;;;;;;;29.90;12.70;;;;;;;-2.74;100.00;101232.73;106418;1272;1003173;-67
2023/02/07 11:58:37;;;;;;;21.60;9.40;;;;;;;-2.79;100.00;101231.86;106190;1269;1002988;-70
2023/02/07 12:01:14;;;;;;;19.00;8.80;;;;;;;-2.83;100.00;101231.49;107895;1275;22882;-70
2023/02/07 12:08:10;;;;;;;16.60;7.40;;;;;;;-3.16;100.00;101234.41;107048;1271;25494;-69
2023/02/07 12:10:41;;;;;;;23.40;8.60;;;;;;;-3.33;100.00;101243.30;106943;1275;25406;-71
2023/02/07 12:13:34;;;;;;;17.50;7.60;;;;;;;-3.39;100.00;101243.50;106195;1275;1002898;-70
2023/02/07 12:16:15;;;;;;;20.60;7.00;;;;;;;-3.47;100.00;101242.02;106223;1275;1003284;-69
2023/02/07 12:18:49;;;;;;;15.70;7.10;;;;;;;-3.52;100.00;101233.55;107021;1275;25599;-68
2023/02/07 12:21:17;;;;;;;18.90;7.70;;;;;;;-3.48;100.00;101228.30;107077;1269;25450;-70
2023/02/07 12:23:49;;;;;;;21.20;8.70;;;;;;;-3.43;100.00;101215.77;107459;1272;23862;-75
2023/02/07 12:26:20;;;;;;;27.80;11.80;;;;;;;-3.36;100.00;101202.14;107149;1275;1002861;-76
2023/02/07 12:29:08;;;;;;;20.10;8.90;;;;;;;-3.23;100.00;101185.83;107322;1275;22477;-71
2023/02/07 12:31:44;;;;;;;23.20;8.40;;;;;;;-3.20;100.00;101175.84;106351;1268;1005167;-68
2023/02/07 12:34:22;;;;;;;21.20;9.10;;;;;;;-3.22;100.00;101185.61;107051;1275;25597;-67
2023/02/07 12:36:54;;;;;;;22.30;8.50;;;;;;;-3.18;100.00;101191.66;106909;1275;25487;-68
2023/02/07 12:39:37;;;;;;;21.70;11.40;;;;;;;-3.21;100.00;101198.27;107064;1268;22553;-68
2023/02/07 12:42:15;;;;;;;20.10;9.10;;;;;;;-3.09;100.00;101191.52;107112;1275;23877;-66
2023/02/07 12:44:56;;;;;;;22.00;9.10;;;;;;;-2.84;100.00;101180.33;106067;1267;1002979;-67
2023/02/07 12:48:17;;;;;;;18.10;8.10;;;;;;;-2.58;100.00;101165.76;107151;1269;22558;-73
2023/02/07 12:50:54;;;;;;;18.30;6.50;;;;;;;-2.35;100.00;101173.84;106735;1281;25295;-67
2023/02/07 12:53:44;;;;;;;20.50;8.30;;;;;;;-2.01;100.00;101166.16;106848;1274;24238;-68
2023/02/07 12:56:13;;;;;;;20.10;8.10;;;;;;;-1.59;100.00;101151.49;106856;1276;22538;-68
2023/02/07 12:58:56;;;;;;;18.40;8.30;;;;;;;-1.28;100.00;101143.23;106166;1276;1002878;-66
2023/02/07 13:01:31;;;;;;;17.90;7.60;;;;;;;-1.01;100.00;101135.28;107063;1270;24282;-69
2023/02/07 13:04:25;;;;;;;20.60;8.50;;;;;;;-0.88;100.00;101143.05;106292;1276;1003257;-69
2023/02/07 13:07:18;;;;;;;13.00;5.80;;;;;;;-0.92;100.00;101170.98;107031;1276;22659;-70
2023/02/07 13:09:59;;;;;;;17.10;7.30;;;;;;;-1.09;100.00;101205.58;107156;1276;24166;-68
2023/02/07 13:12:39;;;;;;;16.10;7.00;;;;;;;-1.34;100.00;101238.34;107005;1276;26626;-68
2023/02/07 13:15:08;;;;;;;21.70;7.40;;;;;;;-1.52;100.00;101255.71;107084;1269;24077;-70
2023/02/07 13:17:53;;;;;;;18.00;7.60;;;;;;;-1.63;100.00;101259.16;106359;1269;1002718;-70
2023/02/07 13:20:47;;;;;;;21.40;7.90;;;;;;;-1.72;100.00;101258.11;106993;1276;25426;-68
2023/02/07 13:23:24;;;;;;;;;;;;;;;-1.68;100.00;101251.59;106270;1276;1002943;-68
2023/02/07 13:25:56;;;;;;;15.80;6.80;;;;;;;-1.83;100.00;101256.42;106928;1275;22533;-69
2023/02/07 13:28:29;;;;;;;28.00;8.00;;;;;;;-1.93;100.00;101258.77;106405;1276;1003733;-69
2023/02/07 13:30:58;;;;;;;;;;;;;;;-1.95;100.00;101253.39;106232;1275;1002854;-69
2023/02/07 13:33:27;;;;;;;14.30;5.20;;;;;;;-1.95;100.00;101253.54;107105;1276;25424;-68
2023/02/07 13:35:59;;;;;;;16.30;6.20;;;;;;;-2.01;100.00;101256.83;107313;1269;24247;-72
2023/02/07 13:38:58;;;;;;;17.50;5.80;;;;;;;-2.07;100.00;101257.92;106879;1269;1003231;-69
2023/02/07 13:41:34;;;;;;;12.20;5.50;;;;;;;-2.02;100.00;101254.73;106075;1272;1003663;-71
2023/02/07 13:44:29;;;;;;;14.60;5.90;;;;;;;-1.95;100.00;101250.22;106906;1269;25478;-71
2023/02/07 13:47:13;;;;;;;14.40;5.80;;;;;;;-2.10;100.00;101260.50;107339;1269;24241;-72
2023/02/07 13:49:49;;;;;;;18.50;6.20;;;;;;;-2.44;100.00;101282.29;106681;1275;1003275;-71
2023/02/07 13:52:20;;;;;;;14.40;6.50;;;;;;;-2.79;100.00;101298.39;107221;1275;22536;-76